Time;durP1;ratioP1;P1;durP2;ratioP2;P2;SDS_P1;SDS_P2;PMS_P1;PMS_P2;Temp;Humidity;BMP_temperature;BMP_pressure;BME280_temperature;BME280_humidity;BME280_pressure;Samples;Min_cycle;Max_cycle;Signal;HPM_P1;HPM_P2
2022/06/13 00:01:19;;;;;;;12.30;4.80;;;12.60;99.90;;;;;;5096287;28;20032;-65
2022/06/13 00:03:46;;;;;;;10.95;4.40;;;12.50;99.90;;;;;;5094633;28;20496;-65
2022/06/13 00:06:11;;;;;;;9.73;5.07;;;12.50;99.90;;;;;;5096171;28;20031;-64
2022/06/13 00:08:37;;;;;;;11.73;5.20;;;12.40;99.90;;;;;;5095656;28;20032;-64
2022/06/13 00:11:09;;;;;;;9.25;4.72;;;12.40;99.90;;;;;;5096089;28;20077;-64
2022/06/13 00:13:36;;;;;;;13.30;4.80;;;12.30;99.90;;;;;;5096032;28;20094;-64
2022/06/13 00:16:02;;;;;;;17.48;5.63;;;12.30;99.90;;;;;;5094429;28;20085;-64
2022/06/13 00:18:27;;;;;;;12.10;5.20;;;12.30;99.90;;;;;;5095727;28;20055;-64
2022/06/13 00:20:54;;;;;;;16.77;5.70;;;12.20;99.90;;;;;;5095760;28;20055;-64
2022/06/13 00:23:20;;;;;;;12.98;5.10;;;12.10;99.90;;;;;;5096041;28;20024;-64
2022/06/13 00:25:46;;;;;;;13.38;6.63;;;12.10;99.90;;;;;;5095961;28;20035;-63
2022/06/13 00:28:12;;;;;;;11.30;5.43;;;12.10;99.90;;;;;;5077514;28;20054;-64
2022/06/13 00:30:37;;;;;;;12.07;4.82;;;12.00;99.90;;;;;;5094555;28;20073;-64
2022/06/13 00:33:03;;;;;;;12.52;5.47;;;12.00;99.90;;;;;;5095635;28;20378;-64
2022/06/13 00:35:29;;;;;;;11.02;5.05;;;11.90;99.90;;;;;;5095547;28;20029;-64
2022/06/13 00:37:55;;;;;;;13.95;5.55;;;11.90;99.90;;;;;;5094179;28;20598;-65
2022/06/13 00:40:22;;;;;;;14.80;5.28;;;11.80;99.90;;;;;;5094087;28;20032;-65
2022/06/13 00:42:48;;;;;;;12.65;5.57;;;11.80;99.90;;;;;;5095141;28;20035;-64
2022/06/13 00:45:20;;;;;;;10.73;6.15;;;11.70;99.90;;;;;;5095439;28;20024;-64
2022/06/13 00:47:48;;;;;;;13.90;6.20;;;11.70;99.90;;;;;;5095359;28;20032;-64
2022/06/13 00:50:20;;;;;;;12.23;5.47;;;11.70;99.90;;;;;;5095300;28;20355;-64
2022/06/13 00:53:00;;;;;;;13.93;6.22;;;11.60;99.90;;;;;;5095079;28;20028;-64
2022/06/13 00:55:48;;;;;;;14.88;7.05;;;11.60;99.90;;;;;;5095251;28;20394;-65
2022/06/13 00:58:15;;;;;;;14.32;6.28;;;11.60;99.90;;;;;;5095048;28;20039;-67
2022/06/13 01:00:44;;;;;;;14.07;6.28;;;11.50;99.90;;;;;;5094936;28;20017;-67
2022/06/13 01:03:11;;;;;;;17.98;7.07;;;11.50;99.90;;;;;;5095331;28;20032;-65
2022/06/13 01:05:43;;;;;;;15.50;7.13;;;11.50;99.90;;;;;;5094771;28;20020;-65
2022/06/13 01:08:10;;;;;;;19.27;7.63;;;11.50;99.90;;;;;;5094748;28;20470;-67
2022/06/13 01:13:53;;;;;;;14.10;6.35;;;11.50;99.90;;;;;;5094499;28;20276;-65
2022/06/13 01:16:49;;;;;;;15.65;6.70;;;11.40;99.90;;;;;;5094460;28;20059;-65
2022/06/13 01:19:54;;;;;;;14.52;6.43;;;11.40;99.90;;;;;;5093535;28;20056;-65
2022/06/13 01:22:40;;;;;;;16.73;7.22;;;11.40;99.90;;;;;;5094057;28;20559;-65
2022/06/13 01:25:45;;;;;;;12.57;6.68;;;11.30;99.90;;;;;;5093190;28;20067;-66
2022/06/13 01:28:43;;;;;;;13.07;7.10;;;11.30;99.90;;;;;;5094260;28;20055;-66
2022/06/13 01:31:32;;;;;;;12.77;7.00;;;11.20;99.90;;;;;;5094153;28;20484;-66
2022/06/13 01:34:37;;;;;;;14.10;7.03;;;11.20;99.90;;;;;;5094138;28;20364;-65
2022/06/13 01:37:22;;;;;;;14.82;6.95;;;11.10;99.90;;;;;;5093823;28;20036;-66
2022/06/13 01:40:04;;;;;;;12.88;7.00;;;11.00;99.90;;;;;;5094385;28;20021;-66
2022/06/13 01:42:56;;;;;;;14.10;6.88;;;11.00;99.90;;;;;;5092907;28;20091;-66
2022/06/13 01:45:51;;;;;;;11.85;6.60;;;11.00;99.90;;;;;;5094096;28;20056;-65
2022/06/13 01:48:56;;;;;;;14.02;6.70;;;11.00;99.90;;;;;;5092651;28;20065;-66
2022/06/13 01:51:34;;;;;;;13.93;6.80;;;10.90;99.90;;;;;;5092971;28;20398;-68
2022/06/13 01:57:31;;;;;;;13.80;6.85;;;10.90;99.90;;;;;;5090745;28;20439;-66
2022/06/13 02:00:13;;;;;;;14.27;7.22;;;10.90;99.90;;;;;;5089441;28;20044;-66
2022/06/13 02:02:51;;;;;;;14.10;6.80;;;10.80;99.90;;;;;;5072615;28;20021;-66
2022/06/13 02:05:38;;;;;;;11.90;6.72;;;10.80;99.90;;;;;;5090687;28;20028;-67
2022/06/13 02:08:09;;;;;;;16.83;7.10;;;10.80;99.90;;;;;;5090850;28;20390;-66
2022/06/13 02:10:42;;;;;;;14.25;6.50;;;10.80;99.90;;;;;;5089437;28;20103;-66
2022/06/13 02:13:16;;;;;;;16.20;7.70;;;10.80;99.90;;;;;;5090585;28;20063;-66
2022/06/13 02:15:47;;;;;;;18.90;8.00;;;10.90;99.90;;;;;;5089220;28;20036;-66
2022/06/13 02:18:19;;;;;;;13.00;7.60;;;10.90;99.90;;;;;;5090627;28;20020;-66
2022/06/13 02:20:49;;;;;;;16.80;7.40;;;10.90;99.90;;;;;;5089442;28;20486;-68
2022/06/13 02:23:21;;;;;;;14.85;7.22;;;11.00;99.90;;;;;;5090578;28;20405;-66
2022/06/13 02:25:59;;;;;;;15.90;7.93;;;11.00;99.90;;;;;;5090692;28;20436;-67
2022/06/13 02:28:35;;;;;;;18.17;8.20;;;11.00;99.90;;;;;;5090575;28;20029;-66
2022/06/13 02:31:07;;;;;;;18.63;8.77;;;11.00;99.90;;;;;;5090359;28;20078;-65
2022/06/13 02:33:40;;;;;;;17.70;8.83;;;11.00;99.90;;;;;;5088802;28;20074;-66
2022/06/13 02:36:13;;;;;;;19.13;8.43;;;11.00;99.90;;;;;;5090008;28;20032;-65
2022/06/13 02:41:29;;;;;;;19.90;9.35;;;11.00;99.90;;;;;;5131842;27;20566;-66
2022/06/13 02:44:02;;;;;;;15.18;8.32;;;11.00;99.90;;;;;;5093887;28;20049;-66
2022/06/13 02:46:42;;;;;;;16.67;8.00;;;11.00;99.90;;;;;;5111244;28;20081;-66
2022/06/13 02:49:14;;;;;;;17.95;8.02;;;10.90;99.90;;;;;;5093221;28;20505;-66
2022/06/13 02:52:06;;;;;;;17.65;8.30;;;10.90;99.90;;;;;;5111454;28;20363;-66
2022/06/13 02:54:52;;;;;;;11.60;7.53;;;10.90;99.90;;;;;;5095835;28;20032;-67
2022/06/13 02:57:58;;;;;;;14.73;8.18;;;10.80;99.90;;;;;;5111158;28;20101;-66
2022/06/13 03:00:31;;;;;;;15.77;8.25;;;10.80;99.90;;;;;;5110721;28;20077;-66
2022/06/13 03:03:00;;;;;;;;;;;10.70;99.90;;;;;;5111319;28;20107;-66
2022/06/13 03:05:50;;;;;;;15.38;7.68;;;10.70;99.90;;;;;;5111070;28;19904;-66
2022/06/13 03:08:40;;;;;;;20.13;8.73;;;10.70;99.90;;;;;;5110855;28;20383;-66
2022/06/13 03:11:45;;;;;;;22.83;9.65;;;10.70;99.90;;;;;;5110789;28;20047;-66
2022/06/13 03:14:35;;;;;;;17.70;9.70;;;10.70;99.90;;;;;;5110498;28;20024;-66
2022/06/13 03:19:46;;;;;;;17.20;9.10;;;10.70;99.90;;;;;;5131977;27;20290;-66
2022/06/13 03:22:20;;;;;;;16.90;9.45;;;10.80;99.90;;;;;;5131922;28;20019;-66
2022/06/13 03:25:12;;;;;;;15.90;8.65;;;10.80;99.90;;;;;;5131520;28;20024;-66
2022/06/13 03:27:50;;;;;;;18.00;10.20;;;10.80;99.90;;;;;;5113020;28;20068;-66
2022/06/13 03:30:20;;;;;;;23.92;9.73;;;10.80;99.90;;;;;;5113127;28;20031;-66
2022/06/13 03:35:48;;;;;;;20.65;9.90;;;11.00;99.90;;;;;;5131088;28;20028;-66
2022/06/13 03:38:19;;;;;;;23.65;10.50;;;11.10;99.90;;;;;;5112855;28;20019;-66
2022/06/13 03:40:50;;;;;;;22.15;10.05;;;11.30;99.90;;;;;;5113786;28;20386;-66
2022/06/13 03:43:22;;;;;;;25.05;10.32;;;11.50;99.90;;;;;;5131628;28;20020;-67
2022/06/13 03:45:55;;;;;;;26.50;10.33;;;11.50;99.90;;;;;;5131283;28;20023;-66
2022/06/13 03:48:29;;;;;;;17.25;9.15;;;11.60;99.90;;;;;;5131038;28;20273;-67
2022/06/13 03:51:04;;;;;;;26.90;9.73;;;11.70;99.90;;;;;;5131126;28;20035;-66
2022/06/13 03:53:45;;;;;;;21.70;9.57;;;11.70;99.90;;;;;;5131494;28;20038;-67
2022/06/13 03:56:37;;;;;;;24.55;9.32;;;11.80;99.90;;;;;;5131521;28;20500;-66
2022/06/13 03:59:09;;;;;;;19.23;9.18;;;11.90;99.90;;;;;;5130803;28;20512;-67
2022/06/13 04:01:46;;;;;;;22.67;9.98;;;12.00;99.90;;;;;;5131156;28;20468;-67
2022/06/13 04:04:18;;;;;;;21.67;8.63;;;12.10;99.90;;;;;;5131260;28;20132;-66
2022/06/13 04:06:44;;;;;;;21.60;8.82;;;12.10;99.90;;;;;;5131330;28;20031;-67
2022/06/13 04:09:16;;;;;;;22.40;9.48;;;12.20;99.90;;;;;;5130881;28;20401;-66
2022/06/13 04:15:21;;;;;;;17.95;9.07;;;12.40;99.90;;;;;;5111098;27;20381;-66
2022/06/13 04:18:21;;;;;;;21.25;9.00;;;12.50;99.90;;;;;;5111012;28;20482;-66
2022/06/13 04:21:01;;;;;;;19.48;8.77;;;12.60;99.90;;;;;;5110875;28;20030;-66
2022/06/13 04:23:50;;;;;;;23.38;8.75;;;12.70;99.90;;;;;;5109693;28;20056;-66
2022/06/13 04:26:32;;;;;;;26.17;10.73;;;12.70;99.90;;;;;;5110830;28;20493;-66
2022/06/13 04:29:27;;;;;;;21.17;9.18;;;12.80;99.90;;;;;;5111068;28;20038;-66
2022/06/13 04:31:58;;;;;;;24.52;10.68;;;12.70;99.90;;;;;;5110771;28;20027;-66
2022/06/13 04:34:30;;;;;;;21.50;10.13;;;12.60;99.90;;;;;;5110750;28;20501;-66
2022/06/13 04:36:57;;;;;;;26.25;10.93;;;12.50;99.90;;;;;;5109483;28;20024;-66
2022/06/13 04:39:28;;;;;;;25.88;10.38;;;12.40;99.90;;;;;;5110911;28;20020;-66
2022/06/13 04:41:57;;;;;;;18.00;10.05;;;12.50;99.90;;;;;;5109448;28;20094;-66
2022/06/13 04:44:27;;;;;;;24.00;10.20;;;12.50;99.90;;;;;;5110809;28;20379;-66
2022/06/13 04:46:54;;;;;;;19.40;9.63;;;12.50;99.90;;;;;;5109200;28;20031;-66
2022/06/13 04:49:30;;;;;;;19.75;9.57;;;12.60;99.90;;;;;;5110453;28;20028;-66
2022/06/13 04:51:58;;;;;;;20.50;10.27;;;12.70;99.90;;;;;;5110389;28;20019;-66
2022/06/13 04:54:39;;;;;;;22.65;10.05;;;12.80;99.90;;;;;;5110374;28;20028;-66
2022/06/13 04:57:05;;;;;;;22.27;10.55;;;12.80;99.90;;;;;;5110478;28;20024;-66
2022/06/13 04:59:31;;;;;;;18.73;10.40;;;12.90;99.90;;;;;;5110164;28;20508;-66
2022/06/13 05:01:58;;;;;;;23.92;11.10;;;12.90;99.90;;;;;;5108894;28;20020;-66
2022/06/13 05:04:29;;;;;;;19.83;9.73;;;13.00;99.90;;;;;;5110387;28;20038;-66
2022/06/13 05:06:58;;;;;;;18.23;8.38;;;12.90;99.90;;;;;;5108784;28;20034;-66
2022/06/13 05:09:29;;;;;;;18.35;9.45;;;12.90;99.90;;;;;;5108733;28;20035;-66
2022/06/13 05:12:28;;;;;;;20.58;9.65;;;13.00;99.90;;;;;;5110248;28;20035;-67
2022/06/13 05:15:02;;;;;;;19.45;9.30;;;12.90;99.90;;;;;;5109916;28;20061;-66
2022/06/13 05:18:05;;;;;;;22.80;10.05;;;13.00;99.90;;;;;;5110146;28;20050;-67
2022/06/13 05:21:10;;;;;;;19.98;9.95;;;13.10;99.90;;;;;;5109800;28;20028;-67
2022/06/13 05:24:03;;;;;;;18.42;10.45;;;13.20;99.90;;;;;;5109627;28;20024;-67
2022/06/13 05:26:29;;;;;;;20.83;10.25;;;13.20;99.90;;;;;;5096047;28;20027;-67
2022/06/13 05:28:57;;;;;;;15.48;9.23;;;13.30;99.90;;;;;;5096372;28;20065;-67
2022/06/13 05:31:23;;;;;;;19.80;9.30;;;13.40;99.90;;;;;;5096299;28;20048;-67
2022/06/13 05:33:50;;;;;;;15.98;9.57;;;13.30;99.90;;;;;;5096234;28;20114;-67
2022/06/13 05:36:19;;;;;;;21.05;10.10;;;13.40;99.90;;;;;;5096276;28;20496;-67
2022/06/13 05:38:49;;;;;;;20.33;10.40;;;13.30;99.90;;;;;;5095897;28;20523;-67
2022/06/13 05:41:15;;;;;;;24.02;10.50;;;13.20;99.90;;;;;;5096167;28;20024;-67
2022/06/13 05:43:41;;;;;;;21.77;10.75;;;13.40;99.90;;;;;;5096072;28;20032;-67
2022/06/13 05:46:08;;;;;;;21.95;9.73;;;13.40;99.90;;;;;;5095853;28;20385;-67
2022/06/13 05:48:35;;;;;;;25.52;10.43;;;13.50;99.90;;;;;;5095671;28;20158;-67
2022/06/13 05:51:00;;;;;;;19.20;9.40;;;14.20;99.90;;;;;;5095852;28;20161;-67
2022/06/13 05:53:27;;;;;;;16.20;8.02;;;14.70;99.90;;;;;;5095793;28;20107;-67
2022/06/13 05:55:57;;;;;;;16.30;8.38;;;15.70;99.90;;;;;;5095690;28;20039;-67
2022/06/13 05:58:24;;;;;;;14.27;8.07;;;16.20;99.90;;;;;;5094543;28;20389;-67
2022/06/13 06:00:52;;;;;;;16.58;8.60;;;16.00;99.90;;;;;;5094276;28;20027;-66
2022/06/13 06:03:18;;;;;;;19.98;12.32;;;15.70;99.90;;;;;;5095676;28;20035;-68
2022/06/13 06:05:44;;;;;;;26.35;14.70;;;15.30;99.90;;;;;;5095364;28;20024;-65
2022/06/13 06:08:30;;;;;;;21.30;13.13;;;15.30;99.90;;;;;;5090928;28;20025;-66
2022/06/13 06:10:57;;;;;;;22.13;12.38;;;15.60;99.90;;;;;;5092675;28;20603;-66
2022/06/13 06:13:24;;;;;;;23.10;12.07;;;15.50;99.90;;;;;;5094952;28;20131;-66
2022/06/13 06:15:51;;;;;;;21.13;11.43;;;15.40;99.90;;;;;;5095129;28;20016;-66
2022/06/13 06:18:19;;;;;;;23.98;11.27;;;15.20;99.90;;;;;;5073428;28;20055;-66
2022/06/13 06:20:45;;;;;;;27.30;14.35;;;15.20;99.90;;;;;;5089811;28;20024;-66
2022/06/13 06:23:12;;;;;;;25.67;12.63;;;15.10;99.90;;;;;;5088385;28;20138;-66
2022/06/13 06:25:38;;;;;;;26.08;12.95;;;15.10;99.90;;;;;;5095145;28;20039;-66
2022/06/13 06:28:05;;;;;;;21.73;11.80;;;15.00;99.90;;;;;;5094814;28;20069;-66
2022/06/13 06:30:31;;;;;;;18.60;11.68;;;15.20;99.90;;;;;;5094021;28;20028;-66
2022/06/13 06:32:58;;;;;;;16.90;11.05;;;15.30;99.90;;;;;;5094162;28;20039;-66
2022/06/13 06:35:26;;;;;;;21.13;10.45;;;15.90;99.90;;;;;;5094595;28;20046;-66
2022/06/13 06:37:53;;;;;;;18.30;11.15;;;;;;;;;;5094168;28;20024;-66
2022/06/13 06:40:20;;;;;;;20.85;9.52;;;17.00;99.90;;;;;;5094189;28;20020;-67
2022/06/13 06:42:46;;;;;;;17.98;8.68;;;17.10;99.90;;;;;;5094340;28;20032;-66
2022/06/13 06:45:12;;;;;;;18.05;9.00;;;16.90;99.90;;;;;;5092502;28;20042;-65
2022/06/13 06:47:39;;;;;;;17.23;7.88;;;16.90;99.90;;;;;;5094205;28;20032;-66
2022/06/13 06:50:06;;;;;;;17.45;7.95;;;17.80;99.90;;;;;;5091683;28;20032;-66
2022/06/13 06:52:32;;;;;;;17.13;7.85;;;17.70;99.90;;;;;;5094380;28;20483;-66
2022/06/13 07:00:29;;;;;;;17.27;7.50;;;17.80;99.90;;;;;;5090396;28;20399;-66
2022/06/13 07:02:57;;;;;;;17.27;8.23;;;18.50;99.90;;;;;;5094214;28;20028;-66
2022/06/13 07:05:22;;;;;;;16.10;7.25;;;17.80;99.90;;;;;;5090546;28;20031;-66
2022/06/13 07:07:48;;;;;;;16.33;8.15;;;18.80;99.90;;;;;;5088341;28;20039;-66
2022/06/13 07:10:14;;;;;;;13.00;7.28;;;18.40;99.90;;;;;;5084858;28;20035;-66
2022/06/13 07:12:40;;;;;;;16.35;7.95;;;18.60;99.90;;;;;;5085633;28;20044;-66
2022/06/13 07:15:07;;;;;;;19.15;7.93;;;18.90;99.90;;;;;;5088331;28;20020;-66
2022/06/13 07:17:32;;;;;;;17.23;7.70;;;18.70;99.90;;;;;;5092766;28;20076;-66
2022/06/13 07:19:58;;;;;;;15.38;6.78;;;18.80;99.90;;;;;;5082650;28;20159;-67
2022/06/13 07:22:24;;;;;;;15.80;6.93;;;;;;;;;;5081772;28;20524;-67
2022/06/13 07:24:51;;;;;;;12.60;7.10;;;19.70;99.90;;;;;;5091941;28;20095;-67
2022/06/13 07:27:17;;;;;;;17.92;6.75;;;19.50;99.90;;;;;;5088965;28;20066;-68
2022/06/13 07:29:43;;;;;;;12.55;6.18;;;19.70;99.90;;;;;;5089770;28;20379;-67
2022/06/13 07:32:20;;;;;;;13.15;6.03;;;18.70;99.90;;;;;;5093155;28;20031;-67
2022/06/13 07:34:50;;;;;;;9.20;5.68;;;19.00;99.90;;;;;;5088403;28;20025;-67
2022/06/13 07:40:07;;;;;;;13.23;6.32;;;19.40;99.90;;;;;;5091727;28;20035;-67
2022/06/13 07:42:40;;;;;;;15.25;7.97;;;19.80;99.90;;;;;;5092009;28;20031;-66
2022/06/13 07:45:06;;;;;;;;;;;19.00;99.90;;;;;;5092080;28;20031;-66
2022/06/13 07:47:32;;;;;;;15.43;8.70;;;19.20;99.90;;;;;;5091668;28;19918;-66
2022/06/13 07:49:58;;;;;;;13.70;8.32;;;19.40;99.90;;;;;;5080669;28;20103;-65
2022/06/13 07:52:23;;;;;;;14.32;9.43;;;19.20;99.90;;;;;;5084987;28;20032;-66
2022/06/13 07:54:49;;;;;;;19.67;11.32;;;18.80;99.90;;;;;;5084573;28;20035;-67
2022/06/13 07:57:15;;;;;;;17.30;10.05;;;19.00;99.90;;;;;;5073751;28;20052;-67
2022/06/13 07:59:41;;;;;;;21.15;10.73;;;19.40;99.90;;;;;;5073341;28;20021;-67
2022/06/13 08:02:15;;;;;;;18.45;10.43;;;19.60;99.90;;;;;;5084794;28;20020;-66
2022/06/13 08:04:41;;;;;;;18.00;11.05;;;20.20;99.90;;;;;;5092826;28;20106;-66
2022/06/13 08:07:10;;;;;;;18.42;11.20;;;19.80;99.90;;;;;;5091814;28;20046;-66
2022/06/13 08:09:36;;;;;;;20.17;11.43;;;19.10;99.90;;;;;;5092196;28;20058;-66
2022/06/13 08:12:02;;;;;;;20.10;11.93;;;18.80;99.90;;;;;;5092142;28;20024;-66
2022/06/13 08:14:28;;;;;;;22.70;12.48;;;18.40;99.90;;;;;;5092582;28;20075;-66
2022/06/13 08:16:55;;;;;;;19.73;12.30;;;18.60;99.90;;;;;;5083585;28;20035;-67
2022/06/13 08:19:21;;;;;;;18.25;12.43;;;18.60;99.90;;;;;;5093190;28;20462;-66
2022/06/13 08:21:46;;;;;;;25.83;12.70;;;18.40;99.90;;;;;;5093341;28;20165;-67
2022/06/13 08:24:12;;;;;;;21.33;14.07;;;18.40;99.90;;;;;;5105673;28;20020;-67
2022/06/13 08:26:38;;;;;;;26.58;13.55;;;18.70;99.90;;;;;;5097016;28;20036;-66
2022/06/13 08:29:04;;;;;;;21.50;13.45;;;19.30;99.90;;;;;;5092670;28;20032;-66
2022/06/13 08:31:31;;;;;;;25.98;14.23;;;19.60;99.90;;;;;;5091472;28;20071;-67
2022/06/13 08:33:57;;;;;;;30.00;15.63;;;19.40;99.90;;;;;;5092691;28;20031;-67
2022/06/13 08:36:22;;;;;;;21.63;14.10;;;18.70;99.90;;;;;;5090528;28;20031;-67
2022/06/13 08:38:48;;;;;;;22.55;12.00;;;18.40;99.90;;;;;;5082068;28;20029;-67
2022/06/13 08:41:32;;;;;;;20.80;11.45;;;19.50;99.90;;;;;;5076669;28;20025;-67
2022/06/13 08:44:37;;;;;;;26.20;14.52;;;20.30;99.90;;;;;;5087623;28;20490;-67
2022/06/13 08:47:19;;;;;;;24.63;14.40;;;19.60;99.90;;;;;;5090079;28;20028;-67
2022/06/13 08:49:57;;;;;;;25.17;16.25;;;19.10;99.90;;;;;;5089420;28;20020;-67
2022/06/13 08:52:28;;;;;;;30.85;17.45;;;18.70;99.90;;;;;;5091032;28;20389;-67
2022/06/13 08:57:55;;;;;;;24.73;15.73;;;17.60;99.90;;;;;;5127668;27;20460;-66
2022/06/13 09:00:24;;;;;;;21.65;14.20;;;17.30;99.90;;;;;;5123675;28;20106;-67
2022/06/13 09:03:00;;;;;;;26.73;15.20;;;17.30;99.90;;;;;;5105572;28;20032;-66
2022/06/13 09:05:38;;;;;;;24.67;15.52;;;17.30;99.90;;;;;;5130249;28;20076;-67
2022/06/13 09:08:13;;;;;;;30.02;16.02;;;17.30;99.90;;;;;;5128697;28;20030;-67
2022/06/13 09:11:05;;;;;;;27.42;16.67;;;17.20;99.90;;;;;;5100883;27;20028;-66
2022/06/13 09:13:41;;;;;;;35.22;18.77;;;17.10;99.90;;;;;;5120162;28;20067;-66
2022/06/13 09:16:15;;;;;;;23.15;17.92;;;17.30;99.90;;;;;;5129957;28;20359;-66
2022/06/13 09:18:49;;;;;;;30.05;17.35;;;18.50;99.90;;;;;;5118978;28;20432;-67
2022/06/13 09:21:25;;;;;;;22.17;17.10;;;19.30;99.90;;;;;;5124171;28;20482;-67
2022/06/13 09:24:23;;;;;;;30.83;18.50;;;19.20;99.90;;;;;;5130300;28;20027;-67
2022/06/13 09:26:55;;;;;;;31.63;18.17;;;19.00;99.90;;;;;;5097432;28;20039;-66
2022/06/13 09:29:37;;;;;;;22.85;14.18;;;19.90;99.90;;;;;;5112306;28;20043;-66
2022/06/13 09:32:21;;;;;;;22.08;13.05;;;19.90;99.90;;;;;;5112212;28;20034;-66
2022/06/13 09:34:52;;;;;;;22.70;12.65;;;19.70;99.90;;;;;;5092528;28;20396;-66
2022/06/13 09:37:41;;;;;;;18.55;9.27;;;19.50;99.90;;;;;;5130318;28;20362;-66
2022/06/13 09:40:07;;;;;;;17.75;10.18;;;19.00;99.90;;;;;;5129605;28;20051;-66
2022/06/13 09:43:05;;;;;;;21.95;10.90;;;18.90;99.90;;;;;;5130014;28;20026;-66
2022/06/13 09:45:44;;;;;;;21.95;10.45;;;20.70;99.90;;;;;;5128789;28;20055;-66
2022/06/13 09:48:20;;;;;;;19.13;10.63;;;21.20;99.90;;;;;;5130457;28;20067;-66
2022/06/13 09:51:01;;;;;;;19.08;9.75;;;20.20;99.90;;;;;;5111095;28;20016;-66
2022/06/13 09:53:40;;;;;;;16.92;8.23;;;19.90;99.90;;;;;;5129092;28;20481;-66
2022/06/13 09:56:15;;;;;;;18.98;9.30;;;19.40;99.90;;;;;;5130874;27;20493;-66
2022/06/13 09:59:10;;;;;;;19.08;11.15;;;18.70;99.90;;;;;;5129404;28;20501;-66
2022/06/13 10:01:52;;;;;;;21.65;9.90;;;18.20;99.90;;;;;;5129703;27;20545;-66
2022/06/13 10:07:21;;;;;;;13.55;7.93;;;18.50;99.90;;;;;;5089876;27;20451;-67
2022/06/13 10:10:11;;;;;;;18.90;8.30;;;19.00;99.90;;;;;;5087085;28;20055;-66
2022/06/13 10:12:54;;;;;;;13.13;5.00;;;19.70;99.90;;;;;;5089493;28;20034;-66
2022/06/13 10:15:53;;;;;;;9.57;4.57;;;20.00;99.90;;;;;;5089459;28;20044;-66
2022/06/13 10:18:49;;;;;;;10.10;3.45;;;19.80;99.90;;;;;;5084572;28;20023;-65
2022/06/13 10:24:21;;;;;;;13.63;3.85;;;19.40;99.90;;;;;;5070918;28;20377;-66
2022/06/13 10:27:12;;;;;;;13.07;4.00;;;18.80;99.90;;;;;;5068979;28;20487;-67
2022/06/13 10:32:27;;;;;;;7.78;3.70;;;20.10;99.90;;;;;;5090276;27;20175;-67
2022/06/13 10:35:19;;;;;;;7.95;3.60;;;20.10;99.90;;;;;;5087812;28;20028;-66
2022/06/13 10:38:11;;;;;;;7.07;3.10;;;21.10;99.90;;;;;;5088953;28;20028;-66
2022/06/13 10:40:39;;;;;;;9.55;2.70;;;22.30;99.10;;;;;;5110225;28;20093;-66
2022/06/13 10:43:05;;;;;;;6.78;3.00;;;22.60;97.20;;;;;;5096406;28;20127;-68
2022/06/13 10:45:46;;;;;;;7.85;2.35;;;21.90;92.30;;;;;;5090183;28;20021;-66
2022/06/13 10:48:19;;;;;;;7.13;2.50;;;22.10;92.70;;;;;;5084042;28;20024;-66
2022/06/13 10:50:51;;;;;;;8.73;2.67;;;22.00;94.10;;;;;;5084426;28;20028;-66
2022/06/13 10:53:27;;;;;;;6.95;2.83;;;22.30;93.40;;;;;;5086857;28;20032;-67
2022/06/13 10:55:57;;;;;;;6.38;2.67;;;21.80;93.40;;;;;;5074363;28;20020;-67
2022/06/13 10:58:35;;;;;;;8.90;3.08;;;21.40;94.30;;;;;;5088090;28;20352;-66
2022/06/13 11:01:07;;;;;;;14.35;3.75;;;20.50;96.00;;;;;;5088831;28;20475;-66
2022/06/13 11:03:33;;;;;;;11.85;2.70;;;19.70;96.60;;;;;;5087774;28;20032;-67
2022/06/13 11:06:04;;;;;;;10.68;2.90;;;19.40;97.80;;;;;;5080510;28;20060;-67
2022/06/13 11:08:31;;;;;;;10.43;3.28;;;19.60;99.80;;;;;;5074075;28;20494;-67
2022/06/13 11:11:00;;;;;;;8.10;2.80;;;19.50;99.90;;;;;;5086198;28;20422;-67
2022/06/13 11:13:34;;;;;;;6.22;2.85;;;19.40;99.90;;;;;;5081611;28;20111;-66
2022/06/13 11:24:44;;;;;;;5.88;2.08;;;18.90;99.90;;;;;;5074741;28;20522;-68
2022/06/13 11:27:54;;;;;;;4.78;2.22;;;18.90;99.90;;;;;;5086825;28;20434;-67
2022/06/13 11:30:46;;;;;;;4.75;2.15;;;19.30;99.90;;;;;;5087512;28;20075;-67
2022/06/13 11:33:32;;;;;;;5.30;2.35;;;20.00;99.90;;;;;;5086991;28;20024;-67
2022/06/13 11:36:03;;;;;;;5.57;2.55;;;20.90;99.90;;;;;;5081408;28;20115;-67
2022/06/13 11:38:49;;;;;;;7.80;4.90;;;21.10;98.90;;;;;;5086759;28;20021;-67
2022/06/13 11:41:39;;;;;;;8.40;3.35;;;21.50;98.30;;;;;;5084638;28;20056;-67
2022/06/13 11:44:11;;;;;;;3.92;2.35;;;21.50;98.10;;;;;;5060213;28;20072;-66
2022/06/13 11:46:57;;;;;;;6.22;2.80;;;22.10;97.80;;;;;;5065847;28;20098;-68
2022/06/13 11:49:46;;;;;;;5.22;2.53;;;22.10;97.10;;;;;;5070501;28;20048;-66
2022/06/13 11:54:54;;;;;;;6.28;2.63;;;21.30;97.40;;;;;;5093613;28;20361;-67
2022/06/13 11:57:33;;;;;;;9.45;2.75;;;20.10;99.90;;;;;;5073390;28;20024;-67
2022/06/13 12:08:00;;;;;;;4.28;2.55;;;19.40;99.90;;;;;;5113725;27;20391;-67
2022/06/13 12:10:31;;;;;;;4.38;2.10;;;20.40;99.90;;;;;;5116683;27;20131;-67
2022/06/13 12:12:57;;;;;;;6.05;2.38;;;20.30;99.00;;;;;;5112230;28;20026;-66
2022/06/13 12:15:47;;;;;;;6.13;2.13;;;20.20;99.90;;;;;;5110667;28;20023;-67
2022/06/13 12:18:22;;;;;;;7.20;1.98;;;20.10;99.80;;;;;;5114436;28;20030;-67
2022/06/13 12:23:49;;;;;;;2.78;1.75;;;20.90;97.50;;;;;;5064990;28;20771;-67
2022/06/13 12:26:33;;;;;;;5.97;2.00;;;21.50;95.30;;;;;;5051731;28;20025;-66
2022/06/13 12:29:30;;;;;;;7.35;1.90;;;21.70;93.00;;;;;;5049733;28;20120;-66
2022/06/13 12:32:04;;;;;;;5.25;1.92;;;21.40;92.30;;;;;;5047079;28;20029;-67
2022/06/13 12:34:55;;;;;;;5.53;1.58;;;21.30;93.40;;;;;;5047694;28;20037;-67
2022/06/13 12:37:47;;;;;;;5.45;2.35;;;21.70;94.10;;;;;;5048592;28;20394;-67
2022/06/13 12:40:39;;;;;;;6.65;2.33;;;21.90;90.80;;;;;;5047850;28;20388;-67
2022/06/13 12:43:37;;;;;;;4.10;1.58;;;22.10;92.40;;;;;;5029691;28;20030;-68
2022/06/13 12:46:38;;;;;;;4.45;1.50;;;22.10;91.40;;;;;;5045729;28;20543;-67
2022/06/13 12:49:34;;;;;;;5.85;1.73;;;22.20;91.20;;;;;;5048871;28;20033;-65
2022/06/13 12:52:25;;;;;;;5.50;1.75;;;22.20;91.70;;;;;;5049207;28;20476;-65
2022/06/13 12:55:30;;;;;;;5.80;1.20;;;22.00;92.80;;;;;;5045261;28;20034;-65
2022/06/13 12:58:36;;;;;;;6.03;1.30;;;21.80;92.00;;;;;;5043624;28;20048;-65
2022/06/13 13:01:16;;;;;;;2.08;1.10;;;21.70;91.70;;;;;;5042926;28;20036;-66
2022/06/13 13:04:08;;;;;;;4.63;1.30;;;22.10;91.60;;;;;;5037610;28;20044;-66
2022/06/13 13:06:50;;;;;;;3.35;1.33;;;21.90;92.30;;;;;;5036599;28;20120;-65
2022/06/13 13:09:44;;;;;;;1.58;1.00;;;21.40;92.50;;;;;;5048989;28;20430;-65
2022/06/13 13:12:50;;;;;;;6.43;1.48;;;21.10;92.30;;;;;;5048864;28;20028;-66
2022/06/13 13:15:41;;;;;;;6.35;1.30;;;21.10;93.60;;;;;;5048065;28;20479;-67
2022/06/13 13:18:18;;;;;;;4.57;1.50;;;21.00;93.30;;;;;;5030871;28;20484;-67
2022/06/13 13:20:53;;;;;;;3.72;1.02;;;20.70;94.80;;;;;;5047710;28;20029;-67
2022/06/13 13:23:43;;;;;;;10.25;1.33;;;20.50;93.20;;;;;;5048300;28;20074;-66
2022/06/13 13:26:37;;;;;;;9.40;1.23;;;20.40;93.20;;;;;;5032267;28;20144;-66
2022/06/13 13:29:43;;;;;;;3.72;1.20;;;20.00;93.20;;;;;;5047787;28;20503;-67
2022/06/13 13:32:32;;;;;;;3.13;1.20;;;19.90;92.60;;;;;;5047935;28;20399;-67
2022/06/13 13:35:15;;;;;;;4.53;1.30;;;20.10;91.90;;;;;;5032212;28;20487;-67
2022/06/13 13:37:49;;;;;;;3.30;1.20;;;20.40;91.90;;;;;;5034009;28;20110;-66
2022/06/13 13:40:42;;;;;;;3.22;1.30;;;20.30;92.10;;;;;;5033643;28;20030;-67
2022/06/13 13:43:33;;;;;;;5.03;1.20;;;20.80;92.20;;;;;;5034390;28;20033;-66
2022/06/13 13:46:14;;;;;;;3.03;1.10;;;21.40;87.30;;;;;;5034431;28;20071;-66
2022/06/13 13:49:03;;;;;;;3.80;1.02;;;21.10;86.40;;;;;;5034100;28;20127;-67
2022/06/13 13:51:37;;;;;;;6.20;1.38;;;20.90;87.70;;;;;;5032895;28;20471;-66
2022/06/13 13:54:24;;;;;;;5.80;0.85;;;20.80;87.30;;;;;;5030100;28;20029;-66
2022/06/13 13:57:14;;;;;;;4.97;1.13;;;20.70;88.40;;;;;;5033210;28;20160;-67
2022/06/13 13:59:44;;;;;;;3.00;1.20;;;20.60;88.50;;;;;;5040462;28;20034;-67
2022/06/13 14:02:38;;;;;;;1.95;1.00;;;20.60;88.90;;;;;;5036180;28;20033;-66
2022/06/13 14:05:31;;;;;;;1.60;1.10;;;20.90;86.80;;;;;;5034964;28;20025;-66
2022/06/13 14:08:09;;;;;;;3.72;1.10;;;21.30;85.20;;;;;;5031449;28;20026;-67
2022/06/13 14:10:42;;;;;;;3.65;1.25;;;21.10;88.30;;;;;;5030370;28;20029;-67
2022/06/13 14:13:12;;;;;;;4.45;1.40;;;20.60;86.50;;;;;;5034993;28;20023;-66
2022/06/13 14:21:19;;;;;;;9.32;1.58;;;20.80;86.00;;;;;;5111627;27;1151899;-66
2022/06/13 14:23:51;;;;;;;3.28;1.20;;;20.60;86.40;;;;;;5124884;27;20470;-66
2022/06/13 14:26:57;;;;;;;4.07;1.40;;;20.90;87.60;;;;;;5126854;28;20024;-67
2022/06/13 14:32:08;;;;;;;5.47;1.35;;;20.60;83.30;;;;;;5110214;27;20788;-66
2022/06/13 14:37:18;;;;;;;6.28;1.45;;;20.80;83.70;;;;;;5105646;27;20412;-66